Aérodrome :
LOGIN :

S'inscrire | Disclaimer

   EN    FR    IT 

 










Légende :    VFR   VFR Marginal   IFR   IFR Intensif   IFR Très Intensif
Visi : 
Plafond : 
>= 8 km
>= 3000ft
5 à 8 km
1000 à 3000 ft
1500m à 5 km
500 à 1000 ft
800 à 1500m
200 à 500 ft
< 800m
< 200 ft
Symboles :   Orages  Brouillard  Fortes neiges  Fortes précipitations  Vent > 20 kt
SIGMETs :   Divers  Orages  Givrage  Turbulence  Onde Orograph.  Cendres Volcan.






- Altitude de l'aérodrome : 605 ft
- Code IATA : BAY


LRBM - Tautii Magheraus

DERNIER METAR :
  • 191330Z VRB02KT CAVOK 17/11 Q1022

METARs EXPIRÉS :
  • 191300Z VRB02KT CAVOK 17/11 Q1022
  • 191230Z 09004KT 040V130 CAVOK 16/11 Q1022
  • 191200Z 09004KT 050V130 CAVOK 16/11 Q1022
  • 191130Z VRB02KT CAVOK 16/11 Q1023
  • 191100Z 10004KT CAVOK 15/10 Q1023

TAF TAF LRBM
Valide du 19 à 12h jusqu'au 19 à 21h UTC


191100Z 1912/1921 VRB04KT CAVOK



MET'MAP, la Météo Aéronautique d'un coup d'oeil ! - Copyright ORBIFLY Décembre 2007 - Disclaimer

ORBIFLY MET'MAP TEAM :

Programmation & Développement : Alexandra Zaïnal
Conception & Développement : Baudouin d'Aumeries
Co-Programmation & Développement : Marc-Olivier Méhu
Soutien technique & logistique : Manuel Goepfert

Contact : metmap@orbifly.com




SOURCES & CREDITS :

   NOAA